Terminal Aerodrome Forecast
Issued by NWS

Home | Current Version | Previous Version | Text Only | Print | Product List | Glossary On
Versions: 1 2 3 4 5 6 7 8 9 10 11 12 13 14 15
000
FTUS46 KSTO 252000 AAB
TAFRBL
TAF AMD
KRBL 252027Z 2520/2618 VRB03KT 6SM BR SCT005
     FM252300 34004KT P6SM SKC
     FM260400 32003KT 6SM BR SKC
     FM260600 VRB04KT 1/2SM FG SKC
     FM260900 31006KT 1/4SM FG OVC001
     FM261600 36005KT 6SM BR SKC=

USA.gov is the U.S. government's official web portal to all federal, state and local government web resources and services.